Stormville, Texas
Current Conditions -  °F | °C
As of 3:55 AM on Sunday 21 Dec 2014 (Local Time) from KJDD Reporting Station
Haze Haze  
Wind Chill: 45°   Ceiling: 2600
Heat Index: 45°   Visibility: 2mi
Dew Point: 45°   Wind: 0mph
Humidity: 100%   Direction: NA
Pressure: 30.16"   Gusts: NA
Location:  32.7982°N, 95.4046°W
Report Text: KJDD 210955Z AUTO 00000KT 2SM BR OVC026 07/07 A3016 RMK AO2
Loading
Personal Weather Stations






























Interactive Weather Map New forecast layout! Learn more

10-Day Weather Forecast

Advertisements
Track Severe Weather on mobile